Time;durP1;ratioP1;P1;durP2;ratioP2;P2;SDS_P1;SDS_P2;PMS_P1;PMS_P2;Temp;Humidity;BMP_temperature;BMP_pressure;BME280_temperature;BME280_humidity;BME280_pressure;Samples;Min_cycle;Max_cycle;Signal;HPM_P1;HPM_P2
2022/06/23 00:01:30;;;;;;;4.15;2.63;;;;;;;17.31;66.54;101135.84;5011907;28;20382;-67
2022/06/23 00:03:56;;;;;;;3.50;3.20;;;;;;;17.30;66.26;101133.22;5009758;28;20029;-67
2022/06/23 00:06:34;;;;;;;3.42;3.13;;;;;;;17.27;66.64;101129.69;5009802;28;20025;-67
2022/06/23 00:09:00;;;;;;;4.15;3.10;;;;;;;17.26;66.65;101127.97;5009790;28;20034;-67
2022/06/23 00:11:27;;;;;;;7.10;4.00;;;;;;;17.25;67.41;101125.31;5009041;28;20032;-67
2022/06/23 00:14:11;;;;;;;6.22;3.05;;;;;;;17.24;67.54;101132.28;5009791;28;20045;-67
2022/06/23 00:16:37;;;;;;;4.25;3.75;;;;;;;17.23;67.92;101127.94;5009674;28;20044;-67
2022/06/23 00:19:02;;;;;;;7.90;3.83;;;;;;;17.19;68.60;101120.91;5009417;28;20021;-67
2022/06/23 00:21:33;;;;;;;4.80;4.05;;;;;;;17.17;69.24;101117.41;5009047;28;20113;-67
2022/06/23 00:24:04;;;;;;;5.90;3.65;;;;;;;17.20;69.64;101114.78;5008899;28;20453;-67
2022/06/23 00:26:34;;;;;;;6.32;4.03;;;;;;;17.21;70.60;101121.81;5009195;28;20025;-67
2022/06/23 00:29:09;;;;;;;7.83;4.30;;;;;;;17.21;70.37;101111.34;5009124;28;20073;-67
2022/06/23 00:31:34;;;;;;;5.20;4.55;;;;;;;17.21;70.90;101115.69;5011584;28;20105;-67
2022/06/23 00:34:05;;;;;;;6.50;4.68;;;;;;;17.17;71.74;101122.63;5008789;28;20117;-67
2022/06/23 00:36:36;;;;;;;7.88;5.00;;;;;;;17.17;72.01;101125.25;5009375;28;20026;-67
2022/06/23 00:39:04;;;;;;;7.78;5.05;;;;;;;17.18;72.39;101128.75;5009256;28;20113;-67
2022/06/23 00:41:36;;;;;;;6.57;5.05;;;;;;;17.14;73.38;101127.84;5008875;28;20026;-67
2022/06/23 00:44:07;;;;;;;8.02;4.55;;;;;;;17.09;74.05;101132.13;5008981;28;20064;-67
2022/06/23 00:46:47;;;;;;;5.47;4.32;;;;;;;17.06;74.61;101130.34;5007731;28;20136;-67
2022/06/23 00:49:39;;;;;;;8.70;4.90;;;;;;;17.04;75.47;101127.72;5009008;28;20037;-67
2022/06/23 00:52:37;;;;;;;7.88;5.60;;;;;;;16.99;76.13;101120.69;5008979;28;20045;-67
2022/06/23 00:55:13;;;;;;;8.80;4.63;;;;;;;16.95;76.56;101119.78;5008031;28;20140;-67
2022/06/23 00:57:46;;;;;;;6.75;5.05;;;;;;;16.92;77.14;101107.56;5009035;28;20533;-67
2022/06/23 01:00:21;;;;;;;8.57;5.15;;;;;;;16.91;78.10;101105.78;5008790;28;20033;-67
2022/06/23 01:03:11;;;;;;;6.10;5.45;;;;;;;16.87;78.19;101103.13;5008453;28;20037;-67
2022/06/23 01:05:50;;;;;;;7.35;5.43;;;;;;;16.83;78.90;101107.44;5015652;28;20030;-67
2022/06/23 01:08:32;;;;;;;7.05;5.10;;;;;;;16.79;79.43;101111.78;5009432;28;20021;-66
2022/06/23 01:11:07;;;;;;;8.48;6.07;;;;;;;16.77;79.82;101099.53;5008574;28;20478;-66
2022/06/23 01:13:45;;;;;;;9.70;6.00;;;;;;;16.74;81.05;101103.00;5008639;28;20034;-66
2022/06/23 01:16:38;;;;;;;6.90;6.10;;;;;;;16.72;80.95;101101.22;5008140;28;20060;-66
2022/06/23 01:19:21;;;;;;;9.30;6.20;;;;;;;16.70;81.72;101101.22;5007330;28;20038;-66
2022/06/23 01:22:01;;;;;;;12.35;6.95;;;;;;;16.70;81.95;101101.22;5008646;28;20030;-66
2022/06/23 01:24:29;;;;;;;7.80;5.80;;;;;;;16.69;82.37;101104.69;5008054;28;20414;-66
2022/06/23 01:27:31;;;;;;;7.82;5.93;;;;;;;16.64;82.69;101099.41;5007777;28;20045;-67
2022/06/23 01:30:07;;;;;;;7.43;6.70;;;;;;;16.58;83.68;101101.06;5008245;28;20033;-67
2022/06/23 01:32:42;;;;;;;7.50;6.05;;;;;;;16.55;84.06;101108.03;5008364;28;20103;-66
2022/06/23 01:35:16;;;;;;;8.95;7.10;;;;;;;16.56;84.18;101101.06;5008486;28;20026;-66
2022/06/23 01:37:50;;;;;;;8.77;6.53;;;;;;;16.56;84.58;101099.34;5008257;28;20042;-66
2022/06/23 01:40:19;;;;;;;11.20;6.93;;;;;;;16.56;85.47;101099.34;5007780;28;20036;-66
2022/06/23 01:42:52;;;;;;;9.60;7.22;;;;;;;16.56;85.31;101099.34;5008036;28;20049;-66
2022/06/23 01:45:25;;;;;;;9.07;6.88;;;;;;;16.53;85.82;101107.13;5008244;28;20029;-66
2022/06/23 01:48:00;;;;;;;8.38;6.68;;;;;;;16.51;86.29;101106.25;5010494;28;20486;-66
2022/06/23 01:50:41;;;;;;;11.43;7.25;;;;;;;16.49;87.02;101110.59;5007827;28;20022;-67
2022/06/23 01:53:22;;;;;;;9.50;6.93;;;;;;;16.47;87.31;101107.06;5008296;28;20044;-66
2022/06/23 01:56:16;;;;;;;9.82;7.10;;;;;;;16.43;87.73;101102.66;5007694;28;20068;-66
2022/06/23 01:58:53;;;;;;;8.30;6.80;;;;;;;16.40;88.06;101102.63;5007824;28;20022;-66
2022/06/23 02:01:46;;;;;;;10.18;7.22;;;;;;;16.38;88.36;101100.00;5005889;28;20028;-66
2022/06/23 02:04:27;;;;;;;8.80;7.57;;;;;;;16.39;88.63;101101.72;5009565;28;20429;-66
2022/06/23 02:07:02;;;;;;;9.05;8.15;;;;;;;16.38;88.46;101100.00;5010546;28;20028;-66
2022/06/23 02:09:37;;;;;;;8.65;7.40;;;;;;;16.39;88.44;101100.84;5012809;28;20389;-66
2022/06/23 02:12:11;;;;;;;11.30;7.45;;;;;;;16.36;88.80;101101.69;5010458;28;20482;-66
2022/06/23 02:14:49;;;;;;;10.32;7.05;;;;;;;16.36;88.88;101100.81;5009690;28;20049;-66
2022/06/23 02:17:35;;;;;;;12.35;8.98;;;;;;;16.35;89.43;101099.06;5010641;28;20029;-66
2022/06/23 02:20:35;;;;;;;11.90;7.82;;;;;;;16.37;89.21;101089.50;5010255;28;20489;-66
2022/06/23 02:23:17;;;;;;;11.80;8.95;;;;;;;16.38;89.16;101088.66;5010057;28;20046;-66
2022/06/23 02:26:01;;;;;;;9.05;7.47;;;;;;;16.34;89.54;101082.50;5009487;28;20464;-66
2022/06/23 02:28:36;;;;;;;8.77;7.90;;;;;;;16.33;88.88;101086.00;5010241;28;20013;-66
2022/06/23 02:31:11;;;;;;;10.40;7.18;;;;;;;16.31;89.30;101088.59;5009971;28;20025;-66
2022/06/23 02:33:49;;;;;;;10.88;7.57;;;;;;;16.34;89.20;101087.72;5010138;28;20068;-67
2022/06/23 02:36:37;;;;;;;9.77;8.02;;;;;;;16.32;89.54;101085.09;5010253;28;20464;-66
2022/06/23 02:39:17;;;;;;;11.38;7.78;;;;;;;16.30;89.09;101078.97;5009705;28;20032;-66
2022/06/23 02:41:55;;;;;;;10.10;7.50;;;;;;;16.30;89.17;101080.69;5009747;28;20358;-66
2022/06/23 02:44:46;;;;;;;11.68;8.27;;;;;;;16.30;88.77;101094.66;5010215;28;20541;-66
2022/06/23 02:47:42;;;;;;;11.60;7.85;;;;;;;16.27;89.05;101086.78;5012553;28;20049;-67
2022/06/23 02:50:45;;;;;;;11.40;7.90;;;;;;;16.26;88.79;101095.47;5012840;28;20505;-66
2022/06/23 02:53:27;;;;;;;10.18;8.07;;;;;;;16.23;88.81;101090.22;5009905;28;20033;-66
2022/06/23 02:55:58;;;;;;;9.60;7.82;;;;;;;16.23;88.77;101084.97;5010047;28;20050;-66
2022/06/23 02:58:33;;;;;;;11.38;7.50;;;;;;;16.21;89.04;101086.69;5009608;28;20021;-66
2022/06/23 03:01:06;;;;;;;12.13;8.00;;;;;;;16.19;89.38;101072.75;5009436;28;20034;-66
2022/06/23 03:03:45;;;;;;;11.32;7.60;;;;;;;16.18;89.34;101077.09;5009259;28;20109;-66
2022/06/23 03:06:40;;;;;;;8.95;8.07;;;;;;;16.19;88.52;101072.75;5010996;28;20026;-66
2022/06/23 03:09:20;;;;;;;9.02;8.07;;;;;;;16.17;89.17;101059.63;5009268;28;20081;-66
2022/06/23 03:11:52;;;;;;;9.27;7.32;;;;;;;16.14;88.23;101066.56;5014054;28;20439;-66
2022/06/23 03:14:42;;;;;;;9.88;7.82;;;;;;;16.14;87.76;101064.84;5013709;28;20482;-66
2022/06/23 03:17:16;;;;;;;9.20;7.85;;;;;;;16.13;87.59;101062.19;5006904;28;20022;-66
2022/06/23 03:20:05;;;;;;;8.02;7.22;;;;;;;16.12;87.56;101060.47;5007611;28;20034;-66
2022/06/23 03:22:31;;;;;;;12.55;8.15;;;;;;;16.12;86.91;101057.84;5007032;28;20072;-66
2022/06/23 03:25:20;;;;;;;9.52;8.40;;;;;;;16.10;86.73;101052.56;5007072;28;20061;-66
2022/06/23 03:28:00;;;;;;;9.07;7.35;;;;;;;16.09;86.29;101056.06;5008999;28;20398;-66
2022/06/23 03:30:38;;;;;;;10.38;8.00;;;;;;;16.03;86.15;101053.38;5009307;28;20049;-66
2022/06/23 03:33:21;;;;;;;11.35;8.00;;;;;;;16.02;86.02;101054.22;5008957;28;20017;-66
2022/06/23 03:35:55;;;;;;;8.23;7.05;;;;;;;15.98;85.67;101055.88;5008853;28;20069;-66
2022/06/23 03:41:36;;;;;;;10.13;7.88;;;;;;;15.96;85.72;101057.59;5009571;28;20096;-66
2022/06/23 03:44:12;;;;;;;9.80;7.65;;;;;;;15.87;86.60;101067.91;5008586;28;20069;-66
2022/06/23 03:46:50;;;;;;;8.68;7.47;;;;;;;15.78;86.87;101071.28;5008637;28;20117;-66
2022/06/23 03:49:28;;;;;;;9.55;6.97;;;;;;;15.75;86.87;101060.78;5008949;28;20075;-66
2022/06/23 03:52:00;;;;;;;9.45;7.32;;;;;;;15.73;86.96;101068.63;5008878;28;20026;-66
2022/06/23 03:54:29;;;;;;;7.97;7.15;;;;;;;15.64;87.66;101078.94;5008308;28;20025;-66
2022/06/23 03:57:13;;;;;;;8.63;7.72;;;;;;;15.60;87.55;101072.78;5008797;28;20025;-67
2022/06/23 04:00:05;;;;;;;10.43;8.00;;;;;;;15.55;88.28;101072.72;5008904;28;20026;-66
2022/06/23 04:02:40;;;;;;;9.00;7.78;;;;;;;15.53;88.81;101074.44;5010862;28;20565;-66
2022/06/23 04:05:05;;;;;;;8.93;7.93;;;;;;;15.53;88.33;101077.03;5008241;28;20029;-66
2022/06/23 04:08:00;;;;;;;8.80;7.88;;;;;;;15.53;89.30;101074.44;5008262;28;20076;-66
2022/06/23 04:10:30;;;;;;;9.90;8.05;;;;;;;15.52;89.28;101070.06;5007859;28;20478;-66
2022/06/23 04:13:03;;;;;;;8.57;7.15;;;;;;;15.52;88.78;101069.19;5008012;28;20046;-66
2022/06/23 04:15:33;;;;;;;9.57;7.65;;;;;;;15.52;89.41;101063.97;5008441;28;20505;-66
2022/06/23 04:18:04;;;;;;;10.00;7.95;;;;;;;15.51;88.94;101067.44;5008475;28;20029;-66
2022/06/23 04:20:35;;;;;;;10.00;7.75;;;;;;;15.52;87.93;101061.34;5008077;28;20018;-66
2022/06/23 04:23:06;;;;;;;;;;;;;;;15.56;87.65;101064.03;5009080;28;20117;-66
2022/06/23 04:25:47;;;;;;;10.10;7.85;;;;;;;15.59;85.78;101061.47;5008083;28;19924;-66
2022/06/23 04:28:36;;;;;;;11.57;8.00;;;;;;;15.65;85.49;101049.34;5007857;28;20057;-66
2022/06/23 04:31:05;;;;;;;8.18;7.32;;;;;;;15.69;84.41;101053.75;5008950;28;20059;-66
2022/06/23 04:33:37;;;;;;;11.27;7.43;;;;;;;15.71;84.97;101055.53;5008445;28;20363;-66
2022/06/23 04:36:03;;;;;;;10.00;7.93;;;;;;;15.75;84.45;101051.25;5007363;28;20038;-66
2022/06/23 04:38:38;;;;;;;8.82;7.95;;;;;;;15.78;83.95;101056.50;5007878;28;20060;-66
2022/06/23 04:41:16;;;;;;;9.20;7.28;;;;;;;15.79;84.02;101058.28;5008185;28;20034;-66
2022/06/23 04:43:48;;;;;;;9.63;7.28;;;;;;;15.83;83.73;101075.72;5007704;28;20044;-66
2022/06/23 04:46:26;;;;;;;11.13;7.60;;;;;;;15.87;83.60;101073.16;5007413;28;20038;-66
2022/06/23 04:49:01;;;;;;;10.60;7.72;;;;;;;15.90;84.05;101067.97;5007265;28;20022;-66
2022/06/23 04:51:34;;;;;;;11.52;8.15;;;;;;;15.95;83.39;101069.81;5008134;28;20494;-66
2022/06/23 04:54:15;;;;;;;10.45;8.50;;;;;;;16.00;83.56;101072.50;5007699;28;20026;-66
2022/06/23 04:56:52;;;;;;;8.75;7.53;;;;;;;16.03;82.28;101064.69;5007576;28;20036;-66
2022/06/23 04:59:32;;;;;;;7.90;7.10;;;;;;;16.08;82.08;101060.41;5009402;28;20037;-66
2022/06/23 05:02:02;;;;;;;8.23;6.80;;;;;;;16.16;81.96;101070.97;5007868;28;20033;-66
2022/06/23 05:04:39;;;;;;;10.65;7.18;;;;;;;16.23;81.29;101068.41;5009822;28;20029;-65
2022/06/23 05:07:18;;;;;;;9.13;7.07;;;;;;;16.27;80.97;101063.25;5027965;28;20385;-66
2022/06/23 05:09:44;;;;;;;7.60;6.90;;;;;;;16.34;80.07;101058.97;5010457;28;20567;-65
2022/06/23 05:12:33;;;;;;;8.75;7.10;;;;;;;16.40;79.14;101071.25;5007954;28;20053;-65
2022/06/23 05:15:20;;;;;;;7.00;6.30;;;;;;;16.40;78.89;101071.25;5007249;28;20048;-66
2022/06/23 05:17:51;;;;;;;7.80;6.78;;;;;;;16.45;79.71;101072.16;5007295;28;20030;-65
2022/06/23 05:20:21;;;;;;;7.03;6.32;;;;;;;16.51;79.24;101079.22;5009923;28;20103;-65
2022/06/23 05:22:48;;;;;;;6.57;5.90;;;;;;;16.54;78.98;101072.28;5007367;28;20181;-65
2022/06/23 05:25:31;;;;;;;6.60;5.63;;;;;;;16.64;79.44;101069.75;5006387;28;20539;-66
2022/06/23 05:27:57;;;;;;;7.22;6.05;;;;;;;16.77;78.50;101076.84;5006582;28;20022;-65
2022/06/23 05:30:28;;;;;;;7.45;6.20;;;;;;;16.89;77.34;101077.84;5006061;28;20779;-66
2022/06/23 05:33:00;;;;;;;7.47;6.53;;;;;;;16.98;78.04;101071.81;5007443;28;20014;-66
2022/06/23 05:35:34;;;;;;;7.90;6.43;;;;;;;17.08;76.92;101065.81;5006414;28;20788;-65
2022/06/23 05:38:05;;;;;;;6.63;5.82;;;;;;;17.20;76.43;101065.03;5006442;28;20017;-65
2022/06/23 05:40:36;;;;;;;6.95;6.25;;;;;;;17.31;76.25;101061.63;5007035;28;20087;-65
2022/06/23 05:43:03;;;;;;;7.05;6.35;;;;;;;17.39;75.61;101068.72;5006445;28;20371;-65
2022/06/23 05:45:41;;;;;;;8.68;6.20;;;;;;;17.45;74.80;101069.63;5005506;28;20229;-65
2022/06/23 05:48:13;;;;;;;8.55;6.10;;;;;;;17.55;75.23;101065.28;5013015;28;20026;-65
2022/06/23 05:50:50;;;;;;;8.48;6.82;;;;;;;17.61;75.58;101067.97;5008885;28;20029;-66
2022/06/23 05:53:33;;;;;;;7.72;6.95;;;;;;;17.62;73.43;101067.09;5014702;28;20340;-65
2022/06/23 05:56:23;;;;;;;7.82;5.97;;;;;;;17.77;73.98;101061.94;5006497;28;20421;-65
2022/06/23 05:58:55;;;;;;;11.40;5.93;;;;;;;17.92;73.51;101073.38;5006203;28;20112;-66
2022/06/23 06:01:26;;;;;;;7.75;5.90;;;;;;;18.06;74.33;101064.72;5026396;28;20029;-66
2022/06/23 06:03:59;;;;;;;6.72;5.97;;;;;;;18.20;72.59;101065.69;5015969;28;20034;-65
2022/06/23 06:06:24;;;;;;;6.93;6.28;;;;;;;18.30;71.86;101070.94;5024854;28;20021;-65
2022/06/23 06:11:43;;;;;;;;;;;;;;;18.59;70.98;101064.91;5027003;28;20071;-65
2022/06/23 06:14:13;;;;;;;7.13;6.20;;;;;;;18.73;71.03;101059.66;5025086;28;19913;-65
2022/06/23 06:16:38;;;;;;;7.07;5.47;;;;;;;18.88;71.00;101060.56;5006177;28;20485;-65
2022/06/23 06:19:04;;;;;;;8.45;5.88;;;;;;;19.01;70.05;101056.19;5013054;28;20056;-65
2022/06/23 06:21:29;;;;;;;6.75;5.93;;;;;;;19.15;70.60;101059.75;5006953;28;20083;-65
2022/06/23 06:23:58;;;;;;;7.10;6.30;;;;;;;19.27;69.28;101066.72;5007556;28;20152;-66
2022/06/23 06:26:30;;;;;;;7.72;5.75;;;;;;;19.40;69.21;101061.47;5006844;28;20026;-65
2022/06/23 06:29:05;;;;;;;9.05;6.18;;;;;;;19.54;69.37;101053.53;5004689;28;20025;-65
2022/06/23 06:31:40;;;;;;;8.00;6.43;;;;;;;19.66;68.35;101050.03;5008461;28;20341;-66
2022/06/23 06:34:34;;;;;;;10.70;6.43;;;;;;;19.79;68.72;101051.72;5020672;28;20033;-65
2022/06/23 06:36:59;;;;;;;6.82;5.45;;;;;;;19.95;68.47;101058.69;5016662;28;20033;-65
2022/06/23 06:39:27;;;;;;;8.88;6.60;;;;;;;20.03;68.11;101063.06;5006757;28;20030;-65
2022/06/23 06:41:56;;;;;;;8.13;6.57;;;;;;;20.19;67.87;101067.38;5005289;28;20014;-65
2022/06/23 06:44:22;;;;;;;7.95;5.80;;;;;;;20.32;67.61;101066.47;5005586;28;20421;-65
2022/06/23 06:46:48;;;;;;;9.00;6.05;;;;;;;20.48;68.41;101059.34;5006339;28;20036;-66
2022/06/23 06:49:18;;;;;;;7.25;5.80;;;;;;;20.63;66.95;101068.91;5009409;28;20104;-66
2022/06/23 06:51:44;;;;;;;7.72;6.03;;;;;;;20.66;65.95;101059.22;5009152;28;20034;-66
2022/06/23 06:54:17;;;;;;;7.43;6.22;;;;;;;20.77;66.42;101057.41;5009190;28;20025;-66
2022/06/23 06:56:48;;;;;;;6.10;5.22;;;;;;;20.92;66.68;101061.66;5009796;28;20088;-66
2022/06/23 06:59:21;;;;;;;5.30;4.78;;;;;;;21.08;66.86;101054.53;5009557;28;20072;-66
2022/06/23 07:01:56;;;;;;;7.35;5.30;;;;;;;21.25;65.88;101061.44;5009260;28;20724;-66
2022/06/23 07:04:30;;;;;;;10.10;5.78;;;;;;;21.46;66.44;101070.03;5010832;28;20618;-66
2022/06/23 07:07:00;;;;;;;9.90;5.80;;;;;;;21.60;65.06;101065.47;5029327;28;20044;-66
2022/06/23 07:09:57;;;;;;;7.10;6.30;;;;;;;21.68;64.10;101069.78;5009344;28;20029;-66
2022/06/23 07:12:30;;;;;;;7.07;5.28;;;;;;;21.85;64.78;101071.41;5009182;28;20124;-65
2022/06/23 07:14:58;;;;;;;8.32;5.28;;;;;;;21.99;64.36;101069.47;5010003;28;20622;-66
2022/06/23 07:17:41;;;;;;;7.45;5.20;;;;;;;22.11;64.23;101072.88;5009697;28;20030;-66
2022/06/23 07:20:24;;;;;;;6.45;5.00;;;;;;;22.25;64.50;101070.03;5009159;28;20038;-66
2022/06/23 07:23:04;;;;;;;6.88;5.82;;;;;;;22.39;63.72;101068.09;5009333;28;20018;-66
2022/06/23 07:25:41;;;;;;;6.72;5.85;;;;;;;22.58;63.05;101067.81;5008745;28;20056;-66
2022/06/23 07:28:14;;;;;;;9.45;5.43;;;;;;;22.77;63.67;101057.84;5008465;28;20029;-66
2022/06/23 07:30:49;;;;;;;8.98;5.03;;;;;;;22.96;62.88;101052.28;5026696;28;20040;-66
2022/06/23 07:33:28;;;;;;;7.53;5.18;;;;;;;23.14;61.50;101050.22;5037180;28;20027;-66
2022/06/23 07:36:04;;;;;;;6.03;5.43;;;;;;;23.31;61.99;101057.00;5012981;28;20037;-66
2022/06/23 07:38:41;;;;;;;7.45;4.80;;;;;;;23.50;61.85;101057.53;5030904;28;20036;-66
2022/06/23 07:41:22;;;;;;;8.63;4.82;;;;;;;23.59;61.71;101061.78;5025865;28;20497;-65
2022/06/23 07:44:13;;;;;;;8.02;4.68;;;;;;;23.77;61.31;101054.38;5019309;28;20389;-66
2022/06/23 07:46:38;;;;;;;10.82;6.45;;;;;;;23.92;61.21;101059.38;5014827;28;20029;-66
2022/06/23 07:49:05;;;;;;;7.63;5.20;;;;;;;24.05;61.36;101046.75;5023420;28;20013;-66
2022/06/23 07:51:30;;;;;;;8.50;5.30;;;;;;;24.16;61.34;101046.50;5024240;28;20033;-66
2022/06/23 07:53:56;;;;;;;6.68;4.80;;;;;;;24.28;60.49;101052.47;5008199;28;20033;-66
2022/06/23 07:56:26;;;;;;;7.05;4.97;;;;;;;24.48;60.95;101052.03;5008950;28;20030;-66
2022/06/23 07:58:55;;;;;;;5.43;4.60;;;;;;;24.69;61.61;101055.94;5011964;28;20022;-66
2022/06/23 08:01:30;;;;;;;7.00;4.82;;;;;;;24.90;60.46;101053.66;5009033;28;20037;-66
2022/06/23 08:04:20;;;;;;;8.90;5.03;;;;;;;25.11;59.15;101050.56;5008702;28;20426;-66
2022/06/23 08:06:47;;;;;;;8.03;5.33;;;;;;;25.31;59.36;101052.69;5015045;28;20032;-66
2022/06/23 08:09:23;;;;;;;6.28;4.75;;;;;;;25.48;57.96;101048.69;5029203;28;20514;-65
2022/06/23 08:14:38;;;;;;;9.40;5.57;;;;;;;25.78;58.86;101048.75;5017638;28;20111;-65
2022/06/23 08:17:11;;;;;;;8.00;4.68;;;;;;;25.97;58.62;101050.88;5028965;28;20025;-66
2022/06/23 08:19:53;;;;;;;5.70;4.18;;;;;;;26.12;58.62;101045.09;5027681;28;20029;-65
2022/06/23 08:22:28;;;;;;;9.30;4.97;;;;;;;26.31;57.16;101041.91;5017933;28;20026;-65
2022/06/23 08:24:57;;;;;;;8.85;4.53;;;;;;;26.49;57.92;101043.13;5027495;28;20049;-66
2022/06/23 08:27:28;;;;;;;4.78;3.60;;;;;;;26.66;57.76;101043.50;5028013;28;20036;-66
2022/06/23 08:29:56;;;;;;;6.45;4.93;;;;;;;26.77;57.10;101036.03;5028164;28;20811;-66
2022/06/23 08:32:24;;;;;;;7.63;4.90;;;;;;;26.95;56.99;101028.34;5017762;28;20041;-66
2022/06/23 08:35:07;;;;;;;7.03;4.15;;;;;;;27.08;57.05;101032.38;5012753;28;20033;-66
2022/06/23 08:38:01;;;;;;;5.95;4.30;;;;;;;27.31;57.25;101036.00;5007258;28;21213;-66
2022/06/23 08:40:48;;;;;;;7.50;3.97;;;;;;;27.37;56.38;101034.91;5008021;28;20038;-66
2022/06/23 08:43:28;;;;;;;8.30;4.68;;;;;;;27.39;53.90;101043.72;5007010;28;20034;-66
2022/06/23 08:46:15;;;;;;;6.65;4.40;;;;;;;27.56;54.96;101034.25;5009170;28;20121;-66
2022/06/23 08:49:05;;;;;;;7.40;3.70;;;;;;;27.67;54.12;101032.03;5006684;28;20403;-66
2022/06/23 08:51:43;;;;;;;6.28;3.30;;;;;;;27.76;53.60;101041.50;5011988;28;20045;-66
2022/06/23 08:54:17;;;;;;;5.78;3.60;;;;;;;27.97;53.96;101036.31;5007176;28;20030;-66
2022/06/23 08:56:54;;;;;;;10.10;3.53;;;;;;;27.86;53.25;101030.53;5006868;28;20416;-66
2022/06/23 08:59:32;;;;;;;5.78;2.70;;;;;;;28.09;54.34;101036.75;5008761;28;20043;-66
2022/06/23 09:02:08;;;;;;;6.57;2.97;;;;;;;28.28;53.08;101036.88;5006826;28;20368;-66
2022/06/23 09:05:00;;;;;;;4.63;3.15;;;;;;;28.40;52.66;101033.78;5005693;28;20048;-66
2022/06/23 09:07:36;;;;;;;7.63;3.25;;;;;;;28.48;51.14;101036.09;5003919;28;20046;-66
2022/06/23 09:10:29;;;;;;;5.93;3.40;;;;;;;28.44;51.75;101029.16;5004623;28;20017;-66
2022/06/23 09:13:32;;;;;;;5.53;3.33;;;;;;;28.47;52.18;101028.19;5008003;28;20591;-66
2022/06/23 09:16:25;;;;;;;6.25;3.45;;;;;;;28.54;52.22;101024.34;5011210;28;20217;-66
2022/06/23 09:19:09;;;;;;;6.18;2.90;;;;;;;28.70;51.61;101021.03;5006804;28;20041;-66
2022/06/23 09:22:01;;;;;;;5.15;2.90;;;;;;;28.98;51.81;101030.53;5006586;28;20030;-66
2022/06/23 09:24:47;;;;;;;9.95;3.33;;;;;;;29.06;50.77;101023.09;5007375;28;20212;-66
2022/06/23 09:27:28;;;;;;;6.78;3.33;;;;;;;29.17;50.58;101025.28;5007426;28;20044;-66
2022/06/23 09:30:03;;;;;;;6.78;2.90;;;;;;;29.14;51.41;101025.44;5006185;28;20125;-66
2022/06/23 09:32:40;;;;;;;4.63;3.05;;;;;;;29.22;51.80;101023.28;5006564;28;20037;-66
2022/06/23 09:35:11;;;;;;;5.97;2.88;;;;;;;29.24;50.95;101015.22;5007419;28;20463;-66
2022/06/23 09:37:47;;;;;;;5.88;2.90;;;;;;;29.46;51.11;101017.78;5005390;28;20028;-66
2022/06/23 09:40:50;;;;;;;6.47;3.45;;;;;;;29.49;50.12;101009.63;5007472;28;20025;-67
2022/06/23 09:43:43;;;;;;;8.90;3.60;;;;;;;29.64;50.58;101007.22;5008135;28;20026;-67
2022/06/23 09:46:42;;;;;;;5.03;2.97;;;;;;;29.84;50.59;101003.59;5006826;28;20467;-67
2022/06/23 09:49:16;;;;;;;6.80;3.15;;;;;;;29.72;50.02;101009.53;5005910;28;20030;-67
2022/06/23 09:52:00;;;;;;;5.65;2.53;;;;;;;29.85;49.16;101007.16;5012046;28;20057;-67
2022/06/23 09:54:59;;;;;;;6.07;3.53;;;;;;;30.08;50.35;101005.19;5006270;28;20034;-67
2022/06/23 09:57:51;;;;;;;9.10;3.90;;;;;;;30.10;49.21;100999.78;5007243;28;20057;-67
2022/06/23 10:00:54;;;;;;;8.75;3.80;;;;;;;30.03;48.83;101004.53;5011097;28;20049;-67
2022/06/23 10:03:35;;;;;;;6.05;3.35;;;;;;;30.11;51.18;100997.03;5010913;28;20110;-67
2022/06/23 10:06:06;;;;;;;10.25;3.33;;;;;;;30.20;51.18;100999.25;5007168;28;20038;-66
2022/06/23 10:08:34;;;;;;;9.80;3.70;;;;;;;30.33;49.68;100993.34;5006918;28;20484;-66
2022/06/23 10:11:18;;;;;;;8.05;3.13;;;;;;;30.46;49.86;100992.75;5006500;28;20034;-66
2022/06/23 10:14:22;;;;;;;9.23;3.63;;;;;;;30.57;50.00;100990.38;5010673;28;20025;-67
2022/06/23 10:17:32;;;;;;;10.10;3.78;;;;;;;30.67;50.15;100998.81;5005738;28;20041;-66
2022/06/23 10:20:07;;;;;;;7.50;4.18;;;;;;;30.52;49.17;101000.44;5011442;28;20022;-66
2022/06/23 10:22:57;;;;;;;7.60;3.65;;;;;;;30.49;48.32;100992.59;5007579;28;20382;-66
2022/06/23 10:25:56;;;;;;;8.40;3.60;;;;;;;30.63;49.59;100987.41;5009385;28;20486;-66
2022/06/23 10:28:55;;;;;;;7.45;3.75;;;;;;;30.72;49.18;100990.53;5010764;28;20026;-66
2022/06/23 10:31:34;;;;;;;4.53;2.95;;;;;;;30.70;49.39;100989.75;5011793;28;20121;-68
2022/06/23 10:34:20;;;;;;;7.05;4.20;;;;;;;30.61;48.37;100986.63;5010972;28;20030;-68
2022/06/23 10:36:58;;;;;;;9.32;4.00;;;;;;;30.43;49.65;100988.41;5010861;28;20140;-68
2022/06/23 10:39:35;;;;;;;5.57;3.58;;;;;;;30.52;50.84;100981.72;5008323;28;20625;-67
2022/06/23 10:42:34;;;;;;;8.20;3.63;;;;;;;30.65;48.73;100974.81;5011406;28;20049;-68
2022/06/23 10:45:12;;;;;;;9.18;4.38;;;;;;;30.79;50.74;100975.91;5012641;28;20109;-67
2022/06/23 10:48:03;;;;;;;7.97;3.63;;;;;;;30.85;49.00;100977.44;5011628;28;20021;-67
2022/06/23 10:50:57;;;;;;;9.68;4.22;;;;;;;30.45;49.82;100970.50;5012374;28;20628;-67
2022/06/23 10:53:48;;;;;;;6.03;4.43;;;;;;;30.32;51.17;100972.91;5017255;28;20033;-67
2022/06/23 10:56:41;;;;;;;13.05;5.63;;;;;;;30.10;50.49;100973.94;5013112;28;20382;-67
2022/06/23 10:59:18;;;;;;;9.55;5.05;;;;;;;29.90;50.72;100967.75;5007827;28;20028;-67
2022/06/23 11:02:15;;;;;;;13.20;4.88;;;;;;;29.77;52.34;100959.47;5009479;28;20489;-67
2022/06/23 11:05:42;;;;;;;8.65;4.00;;;;;;;29.73;50.53;100963.22;5013556;28;20034;-67
2022/06/23 11:08:15;;;;;;;6.35;3.42;;;;;;;30.01;49.61;100963.69;5015388;28;20048;-67
2022/06/23 11:11:11;;;;;;;6.95;3.35;;;;;;;30.23;48.04;100951.97;5017531;28;20406;-67
2022/06/23 11:14:14;;;;;;;9.30;3.50;;;;;;;30.38;48.19;100953.91;5012837;28;20541;-67
2022/06/23 11:16:52;;;;;;;6.55;3.40;;;;;;;30.47;47.07;100941.88;5012464;28;20026;-67
2022/06/23 11:19:48;;;;;;;9.02;3.83;;;;;;;30.55;47.32;100949.50;5012457;28;20025;-67
2022/06/23 11:22:26;;;;;;;10.98;3.80;;;;;;;30.20;46.11;100956.50;5009858;28;20064;-67
2022/06/23 11:25:15;;;;;;;4.82;3.17;;;;;;;29.95;47.35;100952.38;5008874;28;20077;-68
2022/06/23 11:28:04;;;;;;;7.87;3.53;;;;;;;29.71;47.28;100952.63;5010051;28;20385;-67
2022/06/23 11:30:41;;;;;;;9.30;3.65;;;;;;;29.10;49.34;100957.16;5010395;28;20072;-68
2022/06/23 11:33:20;;;;;;;7.07;3.55;;;;;;;28.93;49.13;100963.22;5008600;28;20083;-67
2022/06/23 11:35:46;;;;;;;5.82;3.03;;;;;;;29.10;49.40;100951.81;5008650;28;20029;-67
2022/06/23 11:38:33;;;;;;;6.80;3.13;;;;;;;29.40;50.65;100946.00;5009469;28;20801;-68
2022/06/23 11:41:39;;;;;;;6.97;3.58;;;;;;;29.48;50.21;100954.53;5008186;28;20493;-68
2022/06/23 11:44:26;;;;;;;5.85;3.83;;;;;;;29.59;50.35;100951.34;5009392;28;20057;-68
2022/06/23 11:47:06;;;;;;;6.32;3.13;;;;;;;29.79;50.07;100952.25;5009897;28;20145;-67
2022/06/23 11:49:58;;;;;;;;;;;;;;;29.87;49.78;100943.88;5009953;28;20026;-68
2022/06/23 11:52:51;;;;;;;7.60;3.08;;;;;;;30.18;50.61;100937.03;5022197;28;19920;-68
2022/06/23 11:55:34;;;;;;;7.32;3.72;;;;;;;30.23;48.18;100936.84;5009834;28;20604;-68
2022/06/23 11:58:13;;;;;;;9.35;4.03;;;;;;;30.43;48.59;100927.81;5013281;28;20104;-67
2022/06/23 12:00:48;;;;;;;8.18;3.50;;;;;;;30.33;49.21;100929.22;5008780;28;20359;-68
2022/06/23 12:03:24;;;;;;;6.50;3.55;;;;;;;30.67;49.08;100931.97;5012634;28;20116;-67
2022/06/23 12:05:49;;;;;;;6.30;4.05;;;;;;;30.49;48.35;100925.78;5008440;28;20556;-67
2022/06/23 12:08:29;;;;;;;7.37;3.93;;;;;;;30.44;48.39;100921.50;5008618;28;20093;-68
2022/06/23 12:10:55;;;;;;;7.80;3.40;;;;;;;30.50;48.32;100931.03;5007871;28;20308;-67
2022/06/23 12:13:24;;;;;;;7.47;3.53;;;;;;;30.63;49.02;100928.59;5008205;28;20022;-68
2022/06/23 12:15:50;;;;;;;7.30;3.28;;;;;;;30.86;47.89;100923.88;5012456;28;20108;-67
2022/06/23 12:18:32;;;;;;;8.05;3.28;;;;;;;30.90;44.50;100930.81;5012585;28;20021;-67
2022/06/23 12:21:17;;;;;;;9.48;3.38;;;;;;;30.99;45.06;100920.53;5008743;28;20038;-67
2022/06/23 12:23:50;;;;;;;7.55;3.50;;;;;;;30.86;45.46;100923.88;5008093;28;20046;-68
2022/06/23 12:26:28;;;;;;;8.45;3.70;;;;;;;31.01;44.32;100913.31;5009241;28;20188;-67